Alma Center, WI

6:24 PM CDT on September 01, 2014 (GMT -0500)
Black River Falls Area | Change Station
CLOSE
Current Station
Airport
Location: Black River Falls,
Elevation: 837 ft
Nearby Weather Stations

Elev 837 ft 44.25 °N, 90.86 °W | Updated 9 minutes ago

Scattered Clouds
Scattered Clouds
75 °F
Feels Like 75 °F
N
6
Wind Variable Wind from WNW

Today
High -- | Low -- °F
--% Chance of Precip.
Yesterday
High -- | Low -- °F
Precip. -- in
6:26 AM 7:40 PM
Waxing Crescent, 45% visible
Pressure 29.75 in
Visibility 10.0 miles
Clouds Scattered Clouds 4300 ft
Scattered Clouds 5000 ft
Dew Point 58 °F
Humidity 55%
Rainfall 0.59 in
Snow Depth Not available.
UV 1 out of 12
Pollen 3.70 out of 12
Air Quality Not available.
Flu Activity Not available.
METAR KBCK 012315Z AUTO 29005KT 10SM SCT043 SCT050 24/15 A2975 RMK AO2 T02410145

More Conditions Fewer Conditions

Pressure 29.75 in
Visibility 10.0 miles
Clouds Scattered Clouds 4300 ft
Scattered Clouds 5000 ft
Dew Point 58 °F
Humidity 55%
Rainfall 0.59 in
Snow Depth Not available.
UV 1 out of 12
Pollen 3.70 out of 12
Air Quality Not available.
Flu Activity Not available.
METAR KBCK 012315Z AUTO 29005KT 10SM SCT043 SCT050 24/15 A2975 RMK AO2 T02410145

More Conditions Fewer Conditions

10-Day Weather Forecast

Almanac

Astronomy

Sep. 01, 2014 Rise Set
Actual Time 6:26 AM CDT 7:40 PM CDT
Civil Twilight 5:56 AM CDT 8:09 PM CDT
Nautical Twilight 5:20 AM CDT 8:45 PM CDT
Astronomical Twilight 4:42 AM CDT 9:23 PM CDT
Moon 1:28 PM CDT 11:25 PM CDT
Length of Visible Light 14h 13m
Length of Day
13h 13m
Tomorrow will be 2m 58s shorter.
Waxing Crescent, 45% of the Moon is Illuminated
Today
Waxing Crescent
Sep 2
First Quarter
Sep 8
Full
Sep 15
Last Quarter
Sep 24
New

Today's Extremes

State Highs State Lows

Community

WunderPhotos

Upload Photos

1,749,430 photos uploaded!

Nearby

Snow Depth

Station Depth Elevation
No new snow has been reported.

Earthquake Activity

City Distance Mag. Time & Date
No recent earthquake activity has been reported nearby.
Minimum magnitude displayed is 2.5.

Coastal Water Temperatures

Place Temperature
No Stations Reporting

Nearby Weather Stations